| time (UTC) | temp C | wind direction | speed KPH | gust KPH | rain 1hr cm | rain 24hr cm | rain mn cm | humidity % | barometer mb |
| 20260509173021 | 8 | 249 | 0.0 | 1.6 | 0.08 | 0.28 | 0.28 | 95 | 1013.7 |
| 20260509171523 | 8 | 208 | 0.0 | 1.6 | 0.05 | 0.25 | 0.25 | 95 | 1013.9 |
| 20260509170029 | 7 | 198 | 0.0 | 0.0 | 0.08 | 0.25 | 0.25 | 95 | 1014.1 |
| 20260509164518 | 7 | 197 | 0.0 | 0.0 | 0.10 | 0.25 | 0.25 | 95 | 1014.1 |
| 20260509163017 | 7 | 196 | 0.0 | 1.6 | 0.05 | 0.20 | 0.20 | 94 | 1014.2 |
| 20260509161517 | 7 | 190 | 0.0 | 1.6 | 0.08 | 0.20 | 0.20 | 94 | 1014.0 |
| 20260509160019 | 7 | 227 | 0.0 | 3.2 | 0.05 | 0.18 | 0.18 | 94 | 1013.9 |
| 20260509154516 | 7 | 267 | 0.0 | 1.6 | 0.05 | 0.15 | 0.15 | 93 | 1014.2 |
| 20260509153016 | 7 | 272 | 0.0 | 0.0 | 0.08 | 0.15 | 0.15 | 93 | 1014.5 |
| 20260509151515 | 7 | 272 | 0.0 | 0.0 | 0.05 | 0.13 | 0.13 | 93 | 1014.6 |
| 20260509150014 | 7 | 272 | 0.0 | 0.0 | 0.08 | 0.13 | 0.13 | 91 | 1014.8 |
| 20260509144513 | 7 | 272 | 0.0 | 0.0 | 0.08 | 0.10 | 0.10 | 92 | 1014.9 |
| 20260509143015 | 7 | 272 | 0.0 | 0.0 | 0.05 | 0.08 | 0.08 | 92 | 1015.1 |
| 20260509141520 | 7 | 272 | 0.0 | 0.0 | 0.08 | 0.08 | 0.08 | 92 | 1015.1 |
| 20260509140011 | 7 | 272 | 0.0 | 0.0 | 0.05 | 0.05 | 0.05 | 91 | 1015.0 |
| 20260509134511 | 6 | 272 | 0.0 | 0.0 | 0.03 | 0.03 | 0.03 | 90 | 1014.9 |
| 20260509133012 | 7 | 272 | 0.0 | 0.0 | 0.03 | 0.03 | 0.03 | 89 | 1014.6 |
| 20260509131515 | 7 | 272 | 0.0 | 0.0 | 0.00 | 0.00 | 0.00 | 87 | 1014.6 |
| 20260509130009 | 7 | 272 | 0.0 | 0.0 | 0.00 | 0.00 | 0.00 | 85 | 1014.7 |
| 20260509124510 | 7 | 272 | 0.0 | 0.0 | 0.00 | 0.00 | 0.00 | 83 | 1014.8 |
| 20260509123018 | 7 | 272 | 0.0 | 0.0 | 0.00 | 0.00 | 0.00 | 80 | 1014.9 |
| 20260509121503 | 7 | 272 | 0.0 | 0.0 | 0.00 | 0.00 | 0.00 | 79 | 1015.0 |
| 20260509120108 | 7 | 272 | 0.0 | 1.6 | 0.00 | 0.00 | 0.00 | 84 | 1015.0 |
| 20260509114611 | 6 | 272 | 0.0 | 3.2 | 0.00 | 0.00 | 0.00 | 86 | 1015.2 |
| 20260509113104 | 5 | 241 | 0.0 | 0.0 | 0.00 | 0.00 | 0.00 | 87 | 1014.8 |
| 20260509111558 | 5 | 241 | 0.0 | 1.6 | 0.00 | 0.00 | 0.00 | 88 | 1015.0 |
| 20260509110105 | 5 | 241 | 0.0 | 1.6 | 0.00 | 0.00 | 0.00 | 87 | 1014.9 |
| 20260509104600 | 4 | 290 | 0.0 | 0.0 | 0.00 | 0.00 | 0.00 | 87 | 1014.9 |
| 20260509103053 | 3 | 290 | 0.0 | 0.0 | 0.00 | 0.00 | 0.00 | 88 | 1014.8 |
| 20260509101552 | 3 | 290 | 0.0 | 0.0 | 0.00 | 0.00 | 0.00 | 88 | 1014.8 |
| 20260509100049 | 3 | 290 | 0.0 | 0.0 | 0.00 | 0.00 | 0.00 | 86 | 1014.6 |
| 20260509094548 | 3 | 290 | 0.0 | 0.0 | 0.00 | 0.00 | 0.00 | 86 | 1014.4 |
| 20260509093048 | 3 | 290 | 0.0 | 1.6 | 0.00 | 0.00 | 0.00 | 88 | 1014.3 |
| 20260509091545 | 3 | 290 | 0.0 | 0.0 | 0.00 | 0.00 | 0.00 | 87 | 1014.1 |
| 20260509090049 | 3 | 290 | 0.0 | 0.0 | 0.00 | 0.00 | 0.00 | 86 | 1014.1 |
| 20260509084542 | 3 | 290 | 0.0 | 0.0 | 0.00 | 0.00 | 0.00 | 85 | 1014.1 |
| 20260509083046 | 3 | 290 | 0.0 | 0.0 | 0.00 | 0.00 | 0.00 | 85 | 1013.8 |
| 20260509081543 | 3 | 290 | 0.0 | 0.0 | 0.00 | 0.00 | 0.00 | 84 | 1014.1 |
| 20260509080037 | 3 | 290 | 0.0 | 0.0 | 0.00 | 0.00 | 0.00 | 83 | 1014.0 |
| 20260509074538 | 3 | 290 | 0.0 | 0.0 | 0.00 | 0.00 | 0.00 | 83 | 1013.9 |
| 20260509073036 | 3 | 290 | 0.0 | 0.0 | 0.00 | 0.00 | 0.00 | 82 | 1013.9 |
| 20260509071532 | 4 | 290 | 0.0 | 0.0 | 0.00 | 0.00 | 0.00 | 81 | 1013.8 |
| 20260509070033 | 4 | 290 | 0.0 | 0.0 | 0.00 | 0.00 | 0.00 | 81 | 1013.8 |
| 20260509064532 | 4 | 290 | 0.0 | 0.0 | 0.00 | 0.00 | 0.00 | 80 | 1013.6 |
| 20260509063031 | 4 | 290 | 0.0 | 1.6 | 0.00 | 0.00 | 0.00 | 81 | 1013.5 |
| 20260509061529 | 4 | 290 | 0.0 | 0.0 | 0.00 | 0.00 | 0.00 | 81 | 1013.7 |
| 20260509060028 | 4 | 290 | 0.0 | 0.0 | 0.00 | 0.00 | 0.00 | 79 | 1013.7 |
| 20260509054538 | 4 | 290 | 0.0 | 0.0 | 0.00 | 0.00 | 0.00 | 77 | 1013.8 |
| 20260509053057 | 5 | 290 | 0.0 | 0.0 | 0.00 | 0.00 | 0.00 | 75 | 1013.7 |
| 20260509051524 | 5 | 290 | 0.0 | 0.0 | 0.00 | 0.00 | 0.00 | 74 | 1013.6 |
| 20260509050034 | 5 | 290 | 0.0 | 0.0 | 0.00 | 0.00 | 0.00 | 72 | 1013.6 |
| 20260509044614 | 6 | 290 | 0.0 | 0.0 | 0.00 | 0.00 | 0.00 | 72 | 1013.5 |
| 20260509043012 | 6 | 290 | 0.0 | 0.0 | 0.00 | 0.00 | 0.00 | 72 | 1013.6 |
| 20260509041510 | 6 | 290 | 0.0 | 0.0 | 0.00 | 0.00 | 0.00 | 70 | 1013.4 |
| 20260509040006 | 6 | 290 | 0.0 | 0.0 | 0.00 | 0.00 | 0.00 | 68 | 1013.3 |
| 20260509034505 | 7 | 290 | 0.0 | 1.6 | 0.00 | 0.00 | 0.00 | 67 | 1013.3 |
| 20260509033005 | 7 | 290 | 0.0 | 1.6 | 0.00 | 0.00 | 0.00 | 66 | 1013.2 |
| 20260509031503 | 7 | 290 | 0.0 | 1.6 | 0.00 | 0.00 | 0.00 | 65 | 1013.1 |
| 20260509030008 | 7 | 290 | 0.0 | 0.0 | 0.00 | 0.00 | 0.00 | 64 | 1013.0 |
| 20260509024601 | 7 | 290 | 0.0 | 0.0 | 0.00 | 0.00 | 0.00 | 62 | 1012.9 |
| 20260509023100 | 8 | 290 | 0.0 | 0.0 | 0.00 | 0.00 | 0.00 | 61 | 1012.9 |
| 20260509021601 | 8 | 290 | 0.0 | 0.0 | 0.00 | 0.00 | 0.00 | 59 | 1012.8 |
| 20260509020056 | 9 | 290 | 0.0 | 0.0 | 0.00 | 0.00 | 0.00 | 57 | 1012.5 |
| 20260509014554 | 9 | 290 | 0.0 | 1.6 | 0.00 | 0.00 | 0.00 | 55 | 1012.3 |
| 20260509013108 | 10 | 291 | 0.0 | 3.2 | 0.00 | 0.00 | 0.00 | 54 | 1012.0 |
| 20260509011559 | 10 | 291 | 0.0 | 8.0 | 0.00 | 0.00 | 0.00 | 52 | 1011.8 |
| 20260509010047 | 10 | 295 | 0.0 | 6.4 | 0.00 | 0.00 | 0.00 | 50 | 1011.5 |
| 20260509004545 | 11 | 291 | 3.2 | 8.0 | 0.00 | 0.00 | 0.00 | 49 | 1011.1 |
| 20260509003105 | 11 | 291 | 3.2 | 11.3 | 0.00 | 0.00 | 0.00 | 48 | 1010.8 |
| 20260509001540 | 11 | 295 | 0.0 | 9.7 | 0.00 | 0.00 | 0.00 | 47 | 1010.6 |
| 20260509000039 | 11 | 293 | 3.2 | 9.7 | 0.00 | 0.00 | 0.00 | 45 | 1010.3 |
| 20260508234535 | 12 | 300 | 4.8 | 12.9 | 0.00 | 0.00 | 0.00 | 42 | 1010.1 |
| 20260508233035 | 12 | 309 | 8.0 | 16.1 | 0.00 | 0.00 | 0.00 | 39 | 1009.7 |
| 20260508231539 | 13 | 303 | 3.2 | 12.9 | 0.00 | 0.00 | 0.00 | 36 | 1009.5 |
| 20260508230033 | 14 | 315 | 4.8 | 11.3 | 0.00 | 0.00 | 0.00 | 34 | 1009.3 |
| 20260508224536 | 14 | 319 | 4.8 | 19.3 | 0.00 | 0.00 | 0.00 | 35 | 1009.1 |
| 20260508223032 | 14 | 347 | 6.4 | 19.3 | 0.00 | 0.00 | 0.00 | 35 | 1009.0 |
| 20260508221531 | 14 | 295 | 6.4 | 12.9 | 0.00 | 0.00 | 0.00 | 35 | 1009.0 |
| 20260508220030 | 14 | 321 | 3.2 | 12.9 | 0.00 | 0.00 | 0.00 | 36 | 1009.0 |
| 20260508214631 | 14 | 325 | 6.4 | 25.7 | 0.00 | 0.00 | 0.00 | 34 | 1008.9 |
| 20260508213029 | 14 | 318 | 3.2 | 24.1 | 0.00 | 0.00 | 0.00 | 35 | 1008.8 |
| 20260508211529 | 15 | 340 | 4.8 | 19.3 | 0.00 | 0.00 | 0.00 | 34 | 1008.6 |
| 20260508210031 | 13 | 313 | 1.6 | 6.4 | 0.00 | 0.00 | 0.00 | 38 | 1008.6 |
| 20260508204526 | 13 | 312 | 0.0 | 11.3 | 0.00 | 0.00 | 0.00 | 38 | 1008.6 |
| 20260508203026 | 14 | 297 | 0.0 | 12.9 | 0.00 | 0.00 | 0.00 | 37 | 1008.6 |
| 20260508201526 | 14 | 305 | 6.4 | 20.9 | 0.00 | 0.00 | 0.00 | 37 | 1008.6 |
| 20260508200026 | 14 | 310 | 4.8 | 16.1 | 0.00 | 0.00 | 0.00 | 37 | 1008.5 |
| 20260508194525 | 15 | 322 | 8.0 | 17.7 | 0.00 | 0.00 | 0.00 | 35 | 1008.5 |
| 20260508193024 | 14 | 293 | 6.4 | 16.1 | 0.00 | 0.00 | 0.00 | 36 | 1008.5 |
| 20260508191518 | 13 | 338 | 4.8 | 32.2 | 0.00 | 0.00 | 0.00 | 38 | 1008.5 |
| 20260508190023 | 13 | 270 | 6.4 | 22.5 | 0.00 | 0.00 | 0.00 | 36 | 1008.6 |
| 20260508184517 | 13 | 328 | 9.7 | 19.3 | 0.00 | 0.00 | 0.00 | 34 | 1008.6 |
| 20260508183018 | 13 | 305 | 6.4 | 16.1 | 0.00 | 0.00 | 0.00 | 34 | 1008.4 |
| 20260508181513 | 13 | 341 | 6.4 | 20.9 | 0.00 | 0.00 | 0.00 | 34 | 1008.5 |
| 20260508180011 | 13 | 310 | 4.8 | 16.1 | 0.00 | 0.00 | 0.00 | 39 | 1008.6 |
| 20260508174527 | 13 | 321 | 3.2 | 16.1 | 0.00 | 0.00 | 0.00 | 44 | 1008.7 |